Time;durP1;ratioP1;P1;durP2;ratioP2;P2;SDS_P1;SDS_P2;PMS_P1;PMS_P2;Temp;Humidity;BMP_temperature;BMP_pressure;BME280_temperature;BME280_humidity;BME280_pressure;Samples;Min_cycle;Max_cycle;Signal;HPM_P1;HPM_P2
2022/04/13 00:02:20;;;;;;;;;;;9.30;99.90;;;;;;5095814;28;19912;-77
2022/04/13 00:04:46;;;;;;;;;;;9.20;99.90;;;;;;5094753;28;19943;-77
2022/04/13 00:07:11;;;;;;;;;;;9.20;99.90;;;;;;5096236;28;19908;-77
2022/04/13 00:09:37;;;;;;;;;;;9.20;99.90;;;;;;5109463;28;19923;-76
2022/04/13 00:12:04;;;;;;;;;;;9.30;99.90;;;;;;5096187;28;19913;-77
2022/04/13 00:14:30;;;;;;;;;;;9.20;99.90;;;;;;5095817;28;19962;-77
2022/04/13 00:16:55;;;;;;;;;;;9.20;99.90;;;;;;5094968;28;20390;-75
2022/04/13 00:19:25;;;;;;;;;;;9.20;99.90;;;;;;5095857;28;19916;-75
2022/04/13 00:21:51;;;;;;;;;;;9.10;99.90;;;;;;5094903;28;19931;-75
2022/04/13 00:24:17;;;;;;;;;;;9.10;99.90;;;;;;5095391;28;20354;-75
2022/04/13 00:26:42;;;;;;;;;;;9.00;99.90;;;;;;5094787;28;20234;-75
2022/04/13 00:29:09;;;;;;;;;;;9.00;99.90;;;;;;5095061;28;19908;-75
2022/04/13 00:31:35;;;;;;;;;;;8.90;99.90;;;;;;5095407;28;19908;-75
2022/04/13 00:34:00;;;;;;;;;;;8.80;99.90;;;;;;5094556;28;19960;-75
2022/04/13 00:36:26;;;;;;;;;;;8.80;99.90;;;;;;5093901;28;20004;-76
2022/04/13 00:38:51;;;;;;;;;;;8.70;99.90;;;;;;5094586;28;19912;-75
2022/04/13 00:41:17;;;;;;;;;;;8.60;99.90;;;;;;5094817;28;19908;-76
2022/04/13 00:43:43;;;;;;;;;;;8.60;99.90;;;;;;5094393;28;19928;-76
2022/04/13 00:46:09;;;;;;;;;;;8.50;99.90;;;;;;5093754;28;19914;-77
2022/04/13 00:48:36;;;;;;;;;;;8.50;99.90;;;;;;5095060;28;19915;-76
2022/04/13 00:51:01;;;;;;;;;;;8.40;99.90;;;;;;5094089;28;19915;-76
2022/04/13 00:53:29;;;;;;;;;;;8.40;99.90;;;;;;5095242;28;19912;-76
2022/04/13 00:55:55;;;;;;;;;;;8.40;99.90;;;;;;5094017;28;20449;-76
2022/04/13 00:58:26;;;;;;;;;;;8.40;99.90;;;;;;5094711;28;19912;-75
2022/04/13 01:00:52;;;;;;;;;;;8.40;99.90;;;;;;5094507;28;19999;-76
2022/04/13 01:03:18;;;;;;;;;;;8.40;99.90;;;;;;5094504;28;20371;-76
2022/04/13 01:05:48;;;;;;;;;;;8.40;99.90;;;;;;5094191;28;19947;-77
2022/04/13 01:08:14;;;;;;;;;;;8.40;99.90;;;;;;5094655;28;19965;-77
2022/04/13 01:10:43;;;;;;;;;;;8.40;99.90;;;;;;5094455;28;20303;-77
2022/04/13 01:13:09;;;;;;;;;;;8.40;99.90;;;;;;5094460;28;19962;-77
2022/04/13 01:15:35;;;;;;;;;;;8.40;99.90;;;;;;5094192;28;20364;-77
2022/04/13 01:18:01;;;;;;;;;;;8.40;99.90;;;;;;5093716;28;20006;-77
2022/04/13 01:20:27;;;;;;;;;;;8.40;99.90;;;;;;5093386;28;19961;-77
2022/04/13 01:22:52;;;;;;;;;;;8.40;99.90;;;;;;5093691;28;20420;-77
2022/04/13 01:25:18;;;;;;;;;;;8.40;99.90;;;;;;5093977;28;19974;-78
2022/04/13 01:27:43;;;;;;;;;;;8.40;99.90;;;;;;5093740;28;19918;-76
2022/04/13 01:30:10;;;;;;;;;;;8.40;99.90;;;;;;5094012;28;19930;-78
2022/04/13 01:32:36;;;;;;;;;;;8.40;99.90;;;;;;5093853;28;19908;-78
2022/04/13 01:35:02;;;;;;;;;;;8.50;99.90;;;;;;5093558;28;20000;-77
2022/04/13 01:37:27;;;;;;;;;;;8.50;99.90;;;;;;5094060;28;19955;-77
2022/04/13 01:39:54;;;;;;;;;;;8.50;99.90;;;;;;5093158;28;20011;-77
2022/04/13 01:42:19;;;;;;;;;;;8.50;99.90;;;;;;5092513;28;20417;-77
2022/04/13 01:44:45;;;;;;;;;;;8.60;99.90;;;;;;5093000;28;20007;-76
2022/04/13 01:47:11;;;;;;;;;;;8.60;99.90;;;;;;5093850;28;19908;-77
2022/04/13 01:49:37;;;;;;;;;;;8.60;99.90;;;;;;5093680;28;19916;-77
2022/04/13 01:52:04;;;;;;;;;;;8.60;99.90;;;;;;5092955;28;19912;-77
2022/04/13 01:54:29;;;;;;;;;;;8.60;99.90;;;;;;5093754;28;20048;-77
2022/04/13 01:56:55;;;;;;;;;;;8.60;99.90;;;;;;5092917;28;20007;-77
2022/04/13 01:59:20;;;;;;;;;;;8.60;99.90;;;;;;5102820;28;19916;-78
2022/04/13 02:01:46;;;;;;;;;;;8.60;99.90;;;;;;5095138;28;19914;-74
2022/04/13 02:04:15;;;;;;;;;;;8.70;99.90;;;;;;5093459;28;19920;-78
2022/04/13 02:06:40;;;;;;;;;;;8.70;99.90;;;;;;5093299;28;19908;-77
2022/04/13 02:09:06;;;;;;;;;;;8.70;99.90;;;;;;5093008;28;19950;-78
2022/04/13 02:11:32;;;;;;;;;;;8.70;99.90;;;;;;5093445;28;19908;-77
2022/04/13 02:13:57;;;;;;;;;;;8.70;99.90;;;;;;5092561;28;19956;-77
2022/04/13 02:16:23;;;;;;;;;;;8.70;99.90;;;;;;5093177;28;19938;-77
2022/04/13 02:18:48;;;;;;;;;;;8.70;99.90;;;;;;5092721;28;19923;-76
2022/04/13 02:21:14;;;;;;;;;;;8.80;99.90;;;;;;5092740;28;19977;-77
2022/04/13 02:23:40;;;;;;;;;;;8.90;99.90;;;;;;5093200;28;19912;-77
2022/04/13 02:26:05;;;;;;;;;;;9.00;99.90;;;;;;5092689;28;20083;-77
2022/04/13 02:28:31;;;;;;;;;;;9.00;99.90;;;;;;5093554;28;19912;-77
2022/04/13 02:30:57;;;;;;;;;;;9.10;99.90;;;;;;5091297;28;20372;-77
2022/04/13 02:33:22;;;;;;;;;;;9.10;99.90;;;;;;5093053;28;19956;-77
2022/04/13 02:35:48;;;;;;;;;;;9.10;99.90;;;;;;5093127;28;19948;-76
2022/04/13 02:38:13;;;;;;;;;;;9.20;99.90;;;;;;5093221;28;19923;-77
2022/04/13 02:40:39;;;;;;;;;;;9.20;99.90;;;;;;5093154;28;19918;-77
2022/04/13 02:43:04;;;;;;;;;;;9.20;99.90;;;;;;5092408;28;20283;-77
2022/04/13 02:45:30;;;;;;;;;;;9.20;99.90;;;;;;5092906;28;20353;-77
2022/04/13 02:47:56;;;;;;;;;;;9.20;99.90;;;;;;5092273;28;20357;-77
2022/04/13 02:50:21;;;;;;;;;;;9.30;99.90;;;;;;5093110;28;19908;-77
2022/04/13 02:52:47;;;;;;;;;;;9.30;99.90;;;;;;5092807;28;19915;-77
2022/04/13 02:55:12;;;;;;;;;;;9.40;99.90;;;;;;5092242;28;19909;-77
2022/04/13 02:57:38;;;;;;;;;;;9.40;99.90;;;;;;5092838;28;19912;-77
2022/04/13 03:00:04;;;;;;;;;;;9.50;99.90;;;;;;5092318;28;19922;-77
2022/04/13 03:02:29;;;;;;;;;;;9.50;99.90;;;;;;5092467;28;19908;-77
2022/04/13 03:04:55;;;;;;;;;;;9.50;99.90;;;;;;5091658;28;20404;-76
2022/04/13 03:07:22;;;;;;;;;;;9.60;99.90;;;;;;5092452;28;19908;-77
2022/04/13 03:09:48;;;;;;;;;;;9.60;99.90;;;;;;5092322;28;20411;-77
2022/04/13 03:12:14;;;;;;;;;;;9.70;99.90;;;;;;5091910;28;19908;-78
2022/04/13 03:14:43;;;;;;;;;;;9.70;99.90;;;;;;5092482;28;19908;-77
2022/04/13 03:17:08;;;;;;;;;;;9.70;99.90;;;;;;5093759;28;19919;-78
2022/04/13 03:19:34;;;;;;;;;;;9.70;99.90;;;;;;5094095;28;19912;-78
2022/04/13 03:21:59;;;;;;;;;;;9.70;99.90;;;;;;5091844;28;20376;-77
2022/04/13 03:24:25;;;;;;;;;;;9.70;99.90;;;;;;5092340;28;19931;-77
2022/04/13 03:26:51;;;;;;;;;;;9.70;99.90;;;;;;5092451;28;19908;-76
2022/04/13 03:29:17;;;;;;;;;;;9.70;99.90;;;;;;5092433;28;20307;-77
2022/04/13 03:31:43;;;;;;;;;;;9.70;99.90;;;;;;5091549;28;20258;-77
2022/04/13 03:34:08;;;;;;;;;;;9.70;99.90;;;;;;5091772;28;19914;-74
2022/04/13 03:36:39;;;;;;;;;;;9.70;99.90;;;;;;5092220;28;19958;-77
2022/04/13 03:39:08;;;;;;;;;;;9.80;99.90;;;;;;5092083;28;19912;-77
2022/04/13 03:41:36;;;;;;;;;;;9.70;99.90;;;;;;5092437;28;19912;-77
2022/04/13 03:44:03;;;;;;;;;;;9.80;99.90;;;;;;5093431;28;19943;-74
2022/04/13 03:46:28;;;;;;;;;;;9.80;99.90;;;;;;5096075;28;19908;-74
2022/04/13 03:48:54;;;;;;;;;;;9.80;99.90;;;;;;5095594;28;19908;-74
2022/04/13 03:51:20;;;;;;;;;;;9.80;99.90;;;;;;5096602;28;20045;-74
2022/04/13 03:53:45;;;;;;;;;;;9.80;99.90;;;;;;5096095;28;20357;-74
2022/04/13 03:56:11;;;;;;;;;;;9.80;99.90;;;;;;5095691;28;19908;-74
2022/04/13 03:58:40;;;;;;;;;;;9.80;99.90;;;;;;5096199;28;19958;-74
2022/04/13 04:01:06;;;;;;;;;;;9.80;99.90;;;;;;5095362;28;20277;-74
2022/04/13 04:03:31;;;;;;;;;;;9.80;99.90;;;;;;5095413;28;19920;-74
2022/04/13 04:05:57;;;;;;;;;;;9.80;99.90;;;;;;5095308;28;19908;-75
2022/04/13 04:08:25;;;;;;;;;;;9.80;99.90;;;;;;5094535;28;19912;-75
2022/04/13 04:10:52;;;;;;;;;;;9.80;99.90;;;;;;5095882;28;19908;-75
2022/04/13 04:13:18;;;;;;;;;;;9.80;99.90;;;;;;5094758;28;19908;-75
2022/04/13 04:15:43;;;;;;;;;;;9.80;99.90;;;;;;5095433;28;19957;-75
2022/04/13 04:18:09;;;;;;;;;;;9.70;99.90;;;;;;5094796;28;19955;-74
2022/04/13 04:20:34;;;;;;;;;;;9.70;99.90;;;;;;5094137;28;19965;-75
2022/04/13 04:23:00;;;;;;;;;;;9.70;99.90;;;;;;5094888;28;19908;-74
2022/04/13 04:25:26;;;;;;;;;;;9.70;99.90;;;;;;5095427;28;20353;-74
2022/04/13 04:27:51;;;;;;;;;;;9.70;99.90;;;;;;5095377;28;19908;-74
2022/04/13 04:30:17;;;;;;;;;;;9.70;99.90;;;;;;5094791;28;20002;-74
2022/04/13 04:32:42;;;;;;;;;;;9.60;99.90;;;;;;5095781;28;19908;-74
2022/04/13 04:35:08;;;;;;;;;;;9.70;99.90;;;;;;5094638;28;19999;-77
2022/04/13 04:37:34;;;;;;;;;;;9.60;99.90;;;;;;5095165;28;20023;-77
2022/04/13 04:39:59;;;;;;;;;;;9.60;99.90;;;;;;5094610;28;19912;-76
2022/04/13 04:42:27;;;;;;;;;;;9.60;99.90;;;;;;5093841;28;19908;-77
2022/04/13 04:44:57;;;;;;;;;;;9.60;99.90;;;;;;5094629;28;20270;-75
2022/04/13 04:47:22;;;;;;;;;;;9.60;99.90;;;;;;5095008;28;20049;-77
2022/04/13 04:49:48;;;;;;;;;;;9.60;99.90;;;;;;5094722;28;19908;-77
2022/04/13 04:52:13;;;;;;;;;;;9.60;99.90;;;;;;5094218;28;19912;-77
2022/04/13 04:54:39;;;;;;;;;;;9.60;99.90;;;;;;5093038;28;20358;-77
2022/04/13 04:57:05;;;;;;;;;;;9.60;99.90;;;;;;5093683;28;19934;-77
2022/04/13 04:59:30;;;;;;;;;;;9.60;99.90;;;;;;5095010;28;19912;-77
2022/04/13 05:01:56;;;;;;;;;;;9.60;99.90;;;;;;5094527;28;19915;-77
2022/04/13 05:04:22;;;;;;;;;;;9.60;99.90;;;;;;5093893;28;19920;-77
2022/04/13 05:06:47;;;;;;;;;;;9.60;99.90;;;;;;5094566;28;19993;-77
2022/04/13 05:09:17;;;;;;;;;;;9.60;99.90;;;;;;5094263;28;19912;-77
2022/04/13 05:11:43;;;;;;;;;;;9.60;99.90;;;;;;5094232;28;19909;-77
2022/04/13 05:14:09;;;;;;;;;;;9.70;99.90;;;;;;5093793;28;19915;-77
2022/04/13 05:16:34;;;;;;;;;;;9.70;99.90;;;;;;5092943;28;19959;-77
2022/04/13 05:19:00;;;;;;;;;;;9.70;99.90;;;;;;5093780;28;19938;-77
2022/04/13 05:21:26;;;;;;;;;;;9.70;99.90;;;;;;5094111;28;19908;-77
2022/04/13 05:23:51;;;;;;;;;;;9.70;99.90;;;;;;5094207;28;19908;-77
2022/04/13 05:26:18;;;;;;;;;;;9.80;99.90;;;;;;5093543;28;20414;-77
2022/04/13 05:28:45;;;;;;;;;;;9.80;99.90;;;;;;5094251;28;20353;-77
2022/04/13 05:31:11;;;;;;;;;;;9.80;99.90;;;;;;5093510;28;19915;-74
2022/04/13 05:33:36;;;;;;;;;;;9.80;99.90;;;;;;5094044;28;19912;-77
2022/04/13 05:36:03;;;;;;;;;;;9.80;99.90;;;;;;5093444;28;19934;-77
2022/04/13 05:38:28;;;;;;;;;;;9.90;99.90;;;;;;5093610;28;20360;-77
2022/04/13 05:40:54;;;;;;;;;;;9.90;99.90;;;;;;5092884;28;19936;-77
2022/04/13 05:43:20;;;;;;;;;;;9.90;99.90;;;;;;5092136;28;20097;-78
2022/04/13 05:45:46;;;;;;;;;;;9.90;99.90;;;;;;5093831;28;19950;-77
2022/04/13 05:48:11;;;;;;;;;;;9.90;99.90;;;;;;5094854;28;19908;-78
2022/04/13 05:50:37;;;;;;;;;;;10.00;99.90;;;;;;5099470;28;20007;-77
2022/04/13 05:53:03;;;;;;;;;;;10.00;99.90;;;;;;5093183;28;20322;-76
2022/04/13 05:55:28;;;;;;;;;;;10.10;99.90;;;;;;5093626;28;20003;-77
2022/04/13 05:57:54;;;;;;;;;;;10.10;99.90;;;;;;5093599;28;20291;-77
2022/04/13 06:00:20;;;;;;;;;;;10.10;99.90;;;;;;5092734;28;20425;-77
2022/04/13 06:02:46;;;;;;;;;;;10.10;99.90;;;;;;5093390;28;20258;-77
2022/04/13 06:05:12;;;;;;;;;;;10.10;99.90;;;;;;5092446;28;19928;-77
2022/04/13 06:07:37;;;;;;;;;;;10.10;99.90;;;;;;5092653;28;19987;-76
2022/04/13 06:10:05;;;;;;;;;;;10.10;99.90;;;;;;5092830;28;20337;-77
2022/04/13 06:12:31;;;;;;;;;;;10.20;99.90;;;;;;5092834;28;19908;-76
2022/04/13 06:15:01;;;;;;;;;;;10.20;99.90;;;;;;5093257;28;19942;-77
2022/04/13 06:17:26;;;;;;;;;;;10.20;99.90;;;;;;5092532;28;19957;-77
2022/04/13 06:19:52;;;;;;;;;;;10.20;99.90;;;;;;5093504;28;19912;-76
2022/04/13 06:22:17;;;;;;;;;;;10.20;99.90;;;;;;5092463;28;19951;-77
2022/04/13 06:24:43;;;;;;;;;;;10.20;99.90;;;;;;5093279;28;19912;-77
2022/04/13 06:27:08;;;;;;;;;;;10.20;99.90;;;;;;5092176;28;19995;-77
2022/04/13 06:29:34;;;;;;;;;;;10.30;99.90;;;;;;5093062;28;19908;-75
2022/04/13 06:31:59;;;;;;;;;;;10.20;99.90;;;;;;5093215;28;19953;-75
2022/04/13 06:34:25;;;;;;;;;;;10.30;99.90;;;;;;5092395;28;20066;-75
2022/04/13 06:36:50;;;;;;;;;;;10.30;99.90;;;;;;5092676;28;20277;-76
2022/04/13 06:39:16;;;;;;;;;;;10.30;99.90;;;;;;5092807;28;19938;-76
2022/04/13 06:41:42;;;;;;;;;;;10.30;99.90;;;;;;5092949;28;19908;-76
2022/04/13 06:44:07;;;;;;;;;;;10.30;99.90;;;;;;5092129;28;19915;-79
2022/04/13 06:46:36;;;;;;;;;;;10.30;99.90;;;;;;5093047;28;19912;-77
2022/04/13 06:49:02;;;;;;;;;;;10.30;99.90;;;;;;5092690;28;19915;-77
2022/04/13 06:51:27;;;;;;;;;;;10.40;99.90;;;;;;5092389;28;19977;-78
2022/04/13 06:53:53;;;;;;;;;;;10.40;99.90;;;;;;5091375;28;19912;-77
2022/04/13 06:56:19;;;;;;;;;;;10.50;99.90;;;;;;5092134;28;19948;-77
2022/04/13 06:58:46;;;;;;;;;;;10.50;99.90;;;;;;5092866;28;20387;-77
2022/04/13 07:01:12;;;;;;;;;;;10.60;99.90;;;;;;5092099;28;19992;-76
2022/04/13 07:03:37;;;;;;;;;;;10.70;99.90;;;;;;5092815;28;19970;-75
2022/04/13 07:06:03;;;;;;;;;;;10.70;99.90;;;;;;5091221;28;20002;-75
2022/04/13 07:08:29;;;;;;;;;;;10.80;99.90;;;;;;5091056;28;19961;-75
2022/04/13 07:10:54;;;;;;;;;;;10.90;99.90;;;;;;5092783;28;19909;-75
2022/04/13 07:13:20;;;;;;;;;;;11.00;99.90;;;;;;5091880;28;19958;-75
2022/04/13 07:15:46;;;;;;;;;;;11.10;99.90;;;;;;5091134;28;19908;-75
2022/04/13 07:18:11;;;;;;;;;;;11.10;99.90;;;;;;5092065;28;19919;-75
2022/04/13 07:20:37;;;;;;;;;;;11.20;99.90;;;;;;5096077;28;19916;-75
2022/04/13 07:23:03;;;;;;;;;;;11.20;99.90;;;;;;5096494;28;19908;-76
2022/04/13 07:25:28;;;;;;;;;;;11.30;99.90;;;;;;5095655;28;19946;-75
2022/04/13 07:27:54;;;;;;;;;;;11.20;99.90;;;;;;5096092;28;20238;-76
2022/04/13 07:30:19;;;;;;;;;;;11.30;99.90;;;;;;5095487;28;20009;-77
2022/04/13 07:32:45;;;;;;;;;;;11.30;99.90;;;;;;5096372;28;19908;-76
2022/04/13 07:35:11;;;;;;;;;;;11.40;99.90;;;;;;5095684;28;19915;-76
2022/04/13 07:37:39;;;;;;;;;;;11.40;99.90;;;;;;5096070;28;19919;-77
2022/04/13 07:40:07;;;;;;;;;;;11.50;99.90;;;;;;5096174;28;19919;-76
2022/04/13 07:42:32;;;;;;;;;;;11.60;99.90;;;;;;5095661;28;19908;-76
2022/04/13 07:45:01;;;;;;;;;;;11.70;99.90;;;;;;5096201;28;19915;-76
2022/04/13 07:47:27;;;;;;;;;;;11.80;99.90;;;;;;5095574;28;19908;-77
2022/04/13 07:49:53;;;;;;;;;;;11.80;99.90;;;;;;5095934;28;19943;-77
2022/04/13 07:52:19;;;;;;;;;;;11.90;99.90;;;;;;5094690;28;19947;-76
2022/04/13 07:54:44;;;;;;;;;;;11.90;99.90;;;;;;5095893;28;19908;-77
2022/04/13 07:57:10;;;;;;;;;;;11.90;99.90;;;;;;5094570;28;19912;-76
2022/04/13 07:59:36;;;;;;;;;;;11.90;99.90;;;;;;5094629;28;19920;-76
2022/04/13 08:02:02;;;;;;;;;;;11.90;99.90;;;;;;5095119;28;19908;-76
2022/04/13 08:04:28;;;;;;;;;;;12.00;99.90;;;;;;5094580;28;19935;-75
2022/04/13 08:06:54;;;;;;;;;;;12.00;99.90;;;;;;5095210;28;19913;-76
2022/04/13 08:09:19;;;;;;;;;;;12.00;99.90;;;;;;5094780;28;20372;-76
2022/04/13 08:11:45;;;;;;;;;;;12.00;99.90;;;;;;5095246;28;19915;-76
2022/04/13 08:14:11;;;;;;;;;;;12.10;99.90;;;;;;5094422;28;19908;-75
2022/04/13 08:16:37;;;;;;;;;;;12.10;99.90;;;;;;5095053;28;20372;-76
2022/04/13 08:19:02;;;;;;;;;;;12.20;99.90;;;;;;5094864;28;19916;-75
2022/04/13 08:21:28;;;;;;;;;;;12.20;99.90;;;;;;5094356;28;19923;-75
2022/04/13 08:23:53;;;;;;;;;;;12.30;99.90;;;;;;5094695;28;19916;-75
2022/04/13 08:26:19;;;;;;;;;;;12.30;99.90;;;;;;5094316;28;20303;-76
2022/04/13 08:28:45;;;;;;;;;;;12.40;99.90;;;;;;5094500;28;20378;-76
2022/04/13 08:31:10;;;;;;;;;;;12.40;99.90;;;;;;5094588;28;19908;-76
2022/04/13 08:33:36;;;;;;;;;;;12.50;99.90;;;;;;5094927;28;19915;-76
2022/04/13 08:36:02;;;;;;;;;;;12.50;99.90;;;;;;5094502;28;19952;-76
2022/04/13 08:38:28;;;;;;;;;;;12.60;99.90;;;;;;5094103;28;20019;-76
2022/04/13 08:40:57;;;;;;;;;;;12.60;99.90;;;;;;5095177;28;20365;-77
2022/04/13 08:43:26;;;;;;;;;;;12.60;99.90;;;;;;5094192;28;19912;-76
2022/04/13 08:45:56;;;;;;;;;;;12.70;99.90;;;;;;5094731;28;19908;-76
2022/04/13 08:48:23;;;;;;;;;;;12.80;99.90;;;;;;5091966;28;20350;-76
2022/04/13 08:50:50;;;;;;;;;;;12.70;99.90;;;;;;5092009;28;20058;-76
2022/04/13 08:53:19;;;;;;;;;;;12.60;99.90;;;;;;5093053;28;20357;-76
2022/04/13 08:55:51;;;;;;;;;;;12.60;99.90;;;;;;5094629;28;19950;-76
2022/04/13 08:58:26;;;;;;;;;;;12.50;99.90;;;;;;5094664;28;20420;-76
2022/04/13 09:00:54;;;;;;;;;;;12.50;99.90;;;;;;5094520;28;19916;-76
2022/04/13 09:03:23;;;;;;;;;;;12.70;99.90;;;;;;5093677;28;19954;-76
2022/04/13 09:05:50;;;;;;;;;;;13.10;99.90;;;;;;5093818;28;19957;-76
2022/04/13 09:08:15;;;;;;;;;;;13.20;99.90;;;;;;5093135;28;19928;-76
2022/04/13 09:10:41;;;;;;;;;;;13.40;99.90;;;;;;5094493;28;20345;-76
2022/04/13 09:13:09;;;;;;;;;;;13.50;99.90;;;;;;5094058;28;19912;-76
2022/04/13 09:15:36;;;;;;;;;;;13.60;99.90;;;;;;5093546;28;19961;-76
2022/04/13 09:18:02;;;;;;;;;;;13.80;99.90;;;;;;5093793;28;19920;-76
2022/04/13 09:20:28;;;;;;;;;;;13.80;99.90;;;;;;5093410;28;19916;-76
2022/04/13 09:22:54;;;;;;;;;;;13.90;99.90;;;;;;5093543;28;20318;-76
2022/04/13 09:25:21;;;;;;;;;;;13.90;99.90;;;;;;5092849;28;19912;-76
2022/04/13 09:27:47;;;;;;;;;;;13.90;99.90;;;;;;5093665;28;19999;-76
2022/04/13 09:30:13;;;;;;;;;;;13.90;99.90;;;;;;5093208;28;19908;-77
2022/04/13 09:32:39;;;;;;;;;;;14.00;99.90;;;;;;5092352;28;19953;-76
2022/04/13 09:35:05;;;;;;;;;;;13.90;99.90;;;;;;5093867;28;19908;-77
2022/04/13 09:37:31;;;;;;;;;;;13.90;99.90;;;;;;5092850;28;19988;-77
2022/04/13 09:39:57;;;;;;;;;;;13.90;99.90;;;;;;5093175;28;20397;-76
2022/04/13 09:42:25;;;;;;;;;;;14.00;99.90;;;;;;5091049;28;19908;-77
2022/04/13 09:44:57;;;;;;;;;;;14.00;99.90;;;;;;5091996;28;19908;-76
2022/04/13 09:47:28;;;;;;;;;;;14.10;99.90;;;;;;5092494;28;20292;-76
2022/04/13 09:49:55;;;;;;;;;;;14.10;99.90;;;;;;5092994;28;20010;-76
2022/04/13 09:52:38;;;;;;;;;;;14.10;99.90;;;;;;5092565;28;19947;-76
2022/04/13 09:55:04;;;;;;;;;;;14.20;99.90;;;;;;5093265;28;19973;-76
2022/04/13 09:57:31;;;;;;;;;;;14.30;99.90;;;;;;5092457;28;19916;-76
2022/04/13 09:59:58;;;;;;;;;;;14.30;99.90;;;;;;5093171;28;19912;-76
2022/04/13 10:02:34;;;;;;;;;;;14.40;99.90;;;;;;5092906;28;19912;-76
2022/04/13 10:05:00;;;;;;;;;;;14.50;99.90;;;;;;5093104;28;20373;-76
2022/04/13 10:07:25;;;;;;;;;;;14.70;99.90;;;;;;5092643;28;19908;-76
2022/04/13 10:09:51;;;;;;;;;;;15.00;99.90;;;;;;5093504;28;20002;-76
2022/04/13 10:12:16;;;;;;;;;;;15.30;99.90;;;;;;5092785;28;19991;-76
2022/04/13 10:14:43;;;;;;;;;;;15.20;99.90;;;;;;5093391;28;19978;-76
2022/04/13 10:17:12;;;;;;;;;;;15.20;99.90;;;;;;5092957;28;20277;-76
2022/04/13 10:19:38;;;;;;;;;;;15.10;99.90;;;;;;5092965;28;19920;-76
2022/04/13 10:22:04;;;;;;;;;;;15.10;99.90;;;;;;5093481;28;19916;-77
2022/04/13 10:24:31;;;;;;;;;;;15.20;99.90;;;;;;5092588;28;20301;-77
2022/04/13 10:27:06;;;;;;;;;;;15.20;99.90;;;;;;5093271;28;19915;-76
2022/04/13 10:29:33;;;;;;;;;;;15.30;99.90;;;;;;5092705;28;20435;-76
2022/04/13 10:32:08;;;;;;;;;;;15.40;99.90;;;;;;5093039;28;20002;-77
2022/04/13 10:34:35;;;;;;;;;;;15.50;99.90;;;;;;5092592;28;19908;-76
2022/04/13 10:37:01;;;;;;;;;;;15.50;99.90;;;;;;5093055;28;19959;-76
2022/04/13 10:39:26;;;;;;;;;;;15.60;99.90;;;;;;5092439;28;19958;-77
2022/04/13 10:41:52;;;;;;;;;;;15.60;99.90;;;;;;5093050;28;20303;-77
2022/04/13 10:44:22;;;;;;;;;;;15.50;99.90;;;;;;5092161;28;19908;-76
2022/04/13 10:46:51;;;;;;;;;;;15.50;99.90;;;;;;5092980;28;19998;-77
2022/04/13 10:49:19;;;;;;;;;;;15.50;99.90;;;;;;5092280;28;20045;-76
2022/04/13 10:51:46;;;;;;;;;;;15.30;99.90;;;;;;5091953;28;19937;-76
2022/04/13 10:54:14;;;;;;;;;;;15.30;99.90;;;;;;5094654;28;20357;-75
2022/04/13 10:56:42;;;;;;;;;;;15.40;99.90;;;;;;5094894;28;19914;-76
2022/04/13 10:59:15;;;;;;;;;;;15.40;99.90;;;;;;5096758;28;19912;-77
2022/04/13 11:01:44;;;;;;;;;;;15.40;99.90;;;;;;5096275;28;19934;-76
2022/04/13 11:04:10;;;;;;;;;;;15.50;99.90;;;;;;5095230;28;19920;-76
2022/04/13 11:06:36;;;;;;;;;;;15.50;99.90;;;;;;5096323;28;19982;-76
2022/04/13 11:09:13;;;;;;;;;;;15.60;99.90;;;;;;5096900;28;19914;-76
2022/04/13 11:11:42;;;;;;;;;;;15.60;99.90;;;;;;5096003;28;19914;-77
2022/04/13 11:14:16;;;;;;;;;;;15.80;99.90;;;;;;5096629;28;19908;-76
2022/04/13 11:16:42;;;;;;;;;;;16.00;99.90;;;;;;5096177;28;19966;-76
2022/04/13 11:19:07;;;;;;;;;;;16.20;99.90;;;;;;5096339;28;19947;-76
2022/04/13 11:21:34;;;;;;;;;;;16.20;99.90;;;;;;5096074;28;19912;-76
2022/04/13 11:24:00;;;;;;;;;;;16.20;99.90;;;;;;5096494;28;19938;-77
2022/04/13 11:26:34;;;;;;;;;;;16.30;99.90;;;;;;5095614;28;20090;-76
2022/04/13 11:29:09;;;;;;;;;;;16.30;99.90;;;;;;5095010;28;19923;-77
2022/04/13 11:31:53;;;;;;;;;;;16.40;99.90;;;;;;5095871;28;20241;-76
2022/04/13 11:34:26;;;;;;;;;;;16.40;99.90;;;;;;5096051;28;19915;-76
2022/04/13 11:36:52;;;;;;;;;;;16.40;99.90;;;;;;5096502;28;20351;-77
2022/04/13 11:39:37;;;;;;;;;;;16.40;99.90;;;;;;5096221;28;19947;-76
2022/04/13 11:42:03;;;;;;;;;;;16.40;99.90;;;;;;5096143;28;19908;-76
2022/04/13 11:44:46;;;;;;;;;;;16.50;99.90;;;;;;5095457;28;19969;-76
2022/04/13 11:47:12;;;;;;;;;;;16.60;99.90;;;;;;5096378;28;20214;-77
2022/04/13 11:49:53;;;;;;;;;;;16.60;99.90;;;;;;5095490;28;19947;-76
2022/04/13 11:52:37;;;;;;;;;;;16.60;99.90;;;;;;5096077;28;19914;-77
2022/04/13 11:55:04;;;;;;;;;;;16.70;99.90;;;;;;5096121;28;20014;-77
2022/04/13 11:57:50;;;;;;;;;;;16.80;99.90;;;;;;5095275;28;19912;-77
2022/04/13 12:00:34;;;;;;;;;;;16.80;99.90;;;;;;5094618;28;20376;-77
2022/04/13 12:03:00;;;;;;;;;;;16.70;99.90;;;;;;5095700;28;19999;-77
2022/04/13 12:05:25;;;;;;;;;;;16.50;99.90;;;;;;5094197;28;20003;-77
2022/04/13 12:07:52;;;;;;;;;;;16.60;99.90;;;;;;5095861;28;19995;-77
2022/04/13 12:10:17;;;;;;;;;;;16.60;99.90;;;;;;5095435;28;20377;-77
2022/04/13 12:12:50;;;;;;;;;;;16.40;99.90;;;;;;5093610;28;19912;-76
2022/04/13 12:15:15;;;;;;;;;;;16.40;99.90;;;;;;5093420;28;20050;-77
2022/04/13 12:17:41;;;;;;;;;;;16.30;99.90;;;;;;5093004;28;20010;-78
2022/04/13 12:20:06;;;;;;;;;;;16.30;99.90;;;;;;5094736;28;20314;-77
2022/04/13 12:22:34;;;;;;;;;;;16.20;99.90;;;;;;5093545;28;19916;-77
2022/04/13 12:25:06;;;;;;;;;;;16.30;99.90;;;;;;5093895;28;20345;-77
2022/04/13 12:27:32;;;;;;;;;;;16.50;99.90;;;;;;5094132;28;19908;-75
2022/04/13 12:30:16;;;;;;;;;;;16.50;99.90;;;;;;5094615;28;19908;-76
2022/04/13 12:32:48;;;;;;;;;;;16.50;99.90;;;;;;5092269;28;19908;-75
2022/04/13 12:35:15;;;;;;;;;;;16.50;99.90;;;;;;5094306;28;20354;-76
2022/04/13 12:37:53;;;;;;;;;;;16.50;99.90;;;;;;5094169;28;19923;-75
2022/04/13 12:40:20;;;;;;;;;;;16.40;99.90;;;;;;5094410;28;20357;-76
2022/04/13 12:42:46;;;;;;;;;;;16.20;99.90;;;;;;5094288;28;19908;-77
2022/04/13 12:45:12;;;;;;;;;;;16.20;99.90;;;;;;5094336;28;20282;-76
2022/04/13 12:47:47;;;;;;;;;;;16.10;99.90;;;;;;5093512;28;19908;-76
2022/04/13 12:50:13;;;;;;;;;;;16.20;99.90;;;;;;5094333;28;19908;-76
2022/04/13 12:52:39;;;;;;;;;;;16.20;99.90;;;;;;5092272;28;20265;-76
2022/04/13 12:55:05;;;;;;;;;;;16.30;99.90;;;;;;5094290;28;20372;-76
2022/04/13 12:57:31;;;;;;;;;;;16.30;99.90;;;;;;5093708;28;20015;-76
2022/04/13 12:59:56;;;;;;;;;;;16.40;99.90;;;;;;5093462;28;20018;-77
2022/04/13 13:02:22;;;;;;;;;;;16.40;99.90;;;;;;5093394;28;20564;-76
2022/04/13 13:04:48;;;;;;;;;;;16.40;99.90;;;;;;5093746;28;19997;-77
2022/04/13 13:07:14;;;;;;;;;;;16.40;99.90;;;;;;5094743;28;20281;-77
2022/04/13 13:09:40;;;;;;;;;;;16.40;99.90;;;;;;5093879;28;19912;-77
2022/04/13 13:12:09;;;;;;;;;;;16.40;99.90;;;;;;5094314;28;19908;-76
2022/04/13 13:14:36;;;;;;;;;;;16.40;99.90;;;;;;5092354;28;19973;-76
2022/04/13 13:17:20;;;;;;;;;;;16.40;99.90;;;;;;5091867;28;19912;-76
2022/04/13 13:19:46;;;;;;;;;;;16.40;99.90;;;;;;5071902;28;19916;-76
2022/04/13 13:22:14;;;;;;;;;;;16.40;99.90;;;;;;5072932;28;20433;-76
2022/04/13 13:24:45;;;;;;;;;;;16.40;99.90;;;;;;5072729;28;19913;-77
2022/04/13 13:27:11;;;;;;;;;;;16.40;99.90;;;;;;5072862;28;19908;-76
2022/04/13 13:29:44;;;;;;;;;;;16.30;99.90;;;;;;5071607;28;20334;-77
2022/04/13 13:32:11;;;;;;;;;;;16.30;99.90;;;;;;5073749;28;19952;-76
2022/04/13 13:34:37;;;;;;;;;;;16.20;99.90;;;;;;5072864;28;19908;-76
2022/04/13 13:37:03;;;;;;;;;;;16.30;99.90;;;;;;5073418;28;20337;-76
2022/04/13 13:39:28;;;;;;;;;;;16.20;99.90;;;;;;5073149;28;19962;-76
2022/04/13 13:42:04;;;;;;;;;;;16.20;99.90;;;;;;5073316;28;19912;-76
2022/04/13 13:44:30;;;;;;;;;;;16.20;99.90;;;;;;5072595;28;19909;-76
2022/04/13 13:46:55;;;;;;;;;;;16.20;99.90;;;;;;5072820;28;20272;-76
2022/04/13 13:49:21;;;;;;;;;;;16.10;99.90;;;;;;5072685;28;20035;-76
2022/04/13 13:51:48;;;;;;;;;;;16.10;99.90;;;;;;5072753;28;19912;-76
2022/04/13 13:54:14;;;;;;;;;;;16.10;99.90;;;;;;5073059;28;19938;-77
2022/04/13 13:56:39;;;;;;;;;;;16.10;99.90;;;;;;5072881;28;20007;-77
2022/04/13 13:59:05;;;;;;;;;;;16.10;99.90;;;;;;5072689;28;20254;-76
2022/04/13 14:01:31;;;;;;;;;;;16.10;99.90;;;;;;5072427;28;19909;-76
2022/04/13 14:03:56;;;;;;;;;;;16.00;99.90;;;;;;5071832;28;19921;-77
2022/04/13 14:06:22;;;;;;;;;;;16.00;99.90;;;;;;5073012;28;20018;-76
2022/04/13 14:08:50;;;;;;;;;;;16.00;99.90;;;;;;5072270;28;19948;-77
2022/04/13 14:11:16;;;;;;;;;;;16.10;99.90;;;;;;5072746;28;19913;-77
2022/04/13 14:13:42;;;;;;;;;;;16.10;99.90;;;;;;5072013;28;19962;-77
2022/04/13 14:16:07;;;;;;;;;;;16.20;99.90;;;;;;5072677;28;19908;-76
2022/04/13 14:18:33;;;;;;;;;;;16.30;99.90;;;;;;5071292;28;19923;-76
2022/04/13 14:20:59;;;;;;;;;;;16.40;99.90;;;;;;5105120;28;20358;-76